INFORMACIÓN METAR y TAF
METAR FOR GCXO
ADDS - METARS form results

(1637 UTC 06 March 2021)
Data provider http://aviationweather.gov/metar/data/
 
METAR text: GCXO 061630Z 31020KT 280V340 9000 -RA FEW004 BKN006 14/12 Q1022 NOSIG
Conditions at: GCXO (TENERIFE/LOS ROD, ES) observed 1630 UTC 06 March 2021
Temperature: 14.0°C (57°F)
Dewpoint: 12.0°C (54°F) [RH = 88%]
Pressure (altimeter): 30.18 inches Hg (1022.0 mb)
Winds: from the NW (310 degrees) at 23 MPH (20 knots; 10.3 m/s)
Visibility: 6 miles ( 9 km)
Ceiling: 600 feet AGL
Clouds: few clouds at 400 feet AGL
broken clouds at 600 feet AGL
Weather: -RA  (light rain)

METAR text: GCXO 061600Z 31020KT 260V350 9000 -RA FEW004 BKN009 13/11 Q1022 NOSIG
Conditions at: GCXO (TENERIFE/LOS ROD, ES) observed 1600 UTC 06 March 2021
Temperature: 13.0°C (55°F)
Dewpoint: 11.0°C (52°F) [RH = 88%]
Pressure (altimeter): 30.18 inches Hg (1022.0 mb)
Winds: from the NW (310 degrees) at 23 MPH (20 knots; 10.3 m/s)
Visibility: 6 miles ( 9 km)
Ceiling: 900 feet AGL
Clouds: few clouds at 400 feet AGL
broken clouds at 900 feet AGL
Weather: -RA  (light rain)

Forecast for: GCXO (TENERIFE/LOS ROD, ES)
Text: TAF GCXO 061400Z 0615/0715 31019KT 9999 BKN012 TX16/0714Z TN11/0707Z
Forecast period: 1500 UTC 06 March 2021 to 1500 UTC 07 March 2021
Forecast type: FROM: standard forecast or significant change
Winds: from the NW (310 degrees) at 22 MPH (19 knots; 9.8 m/s)
Visibility: 6 or more miles (10+ km)
Ceiling: 1200 feet AGL
Clouds: broken clouds at 1200 feet AGL
Weather: no significant weather forecast for this period
Text: PROB30
Forecast period: 1500 UTC 06 March 2021 to 1500 UTC 07 March 2021
Forecast type: TEMPORARY: The following changes expected for less than half the time period
Winds: from the NW (320 degrees) at 23 MPH (20 knots; 10.3 m/s)
gusting to 34 MPH (30 knots; 15.4 m/s)
Visibility: missing
Ceiling: unknown
Clouds: missing
Weather: no significant weather forecast for this period
Text: TEMPO 0615/0715 32020G30KT
Forecast period: 1700 UTC 06 March 2021 to 0300 UTC 07 March 2021
Forecast type: TEMPORARY: The following changes expected for less than half the time period
Visibility: 1.86 miles (2.99 km)
Ceiling: 400 feet AGL
Clouds: broken clouds at 400 feet AGL
Weather: DZ BCFG  (moderate drizzle, patches of fog)

 MAPA DE AEROPUERTO

Add a default marker
 INFORMACIÓN DE PISTA
Pista 12 Longitud 11155 ft Ancho 148 ft
Elevación 2060 ft Umbral desplazado 0 ft Rumbo de pista 111
Pista 30 Longitud 11155 ft Ancho 148 ft
Elevación 2002 ft Umbral desplazado 0 ft Rumbo de pista 291

 FRECUANCIAS DEL AEROPUERTO
Tipo APP Nombre APP Frecuencia 119.7 MHZ
Tipo ATIS Nombre ATIS Frecuencia 118.575 MHZ
Tipo GND Nombre GND Frecuencia 121.7 MHZ
Tipo TWR Nombre TWR Frecuencia 118.7 MHZ

 RADIO AYUDAS DEL AEROPUERTO
Tipo VOR-DME Nombre Tenerife Norte Frecuencia 117700 KHZ
Tipo NDB Nombre Tenerife Norte Frecuencia 410 KHZ



Powered by Virtual Airlines Manager [v2.6.2]